sensor_id;sensor_type;location;lat;lon;timestamp;P1;durP1;ratioP1;P2;durP2;ratioP2
19810;SDS011;10065;49.632;8.346;2023-07-31T05:10:13;6.53;;;2.20;;
19810;SDS011;10065;49.632;8.346;2023-07-31T05:13:02;5.13;;;2.37;;
19810;SDS011;10065;49.632;8.346;2023-07-31T05:15:31;8.50;;;2.50;;
19810;SDS011;10065;49.632;8.346;2023-07-31T05:18:02;6.73;;;2.00;;
19810;SDS011;10065;49.632;8.346;2023-07-31T05:20:37;8.47;;;2.53;;
19810;SDS011;10065;49.632;8.346;2023-07-31T05:23:22;10.27;;;3.07;;
19810;SDS011;10065;49.632;8.346;2023-07-31T05:26:01;5.93;;;2.33;;
19810;SDS011;10065;49.632;8.346;2023-07-31T05:28:30;11.77;;;2.70;;
19810;SDS011;10065;49.632;8.346;2023-07-31T05:31:01;8.03;;;2.60;;
19810;SDS011;10065;49.632;8.346;2023-07-31T05:33:44;10.57;;;2.77;;
19810;SDS011;10065;49.632;8.346;2023-07-31T05:36:12;8.77;;;2.40;;
19810;SDS011;10065;49.632;8.346;2023-07-31T05:38:41;7.30;;;2.40;;
19810;SDS011;10065;49.632;8.346;2023-07-31T05:41:12;7.37;;;2.50;;
19810;SDS011;10065;49.632;8.346;2023-07-31T05:43:41;7.33;;;2.57;;
19810;SDS011;10065;49.632;8.346;2023-07-31T05:46:13;9.70;;;2.37;;
19810;SDS011;10065;49.632;8.346;2023-07-31T05:48:41;6.67;;;2.50;;
19810;SDS011;10065;49.632;8.346;2023-07-31T05:51:09;8.37;;;2.60;;
19810;SDS011;10065;49.632;8.346;2023-07-31T05:53:46;8.67;;;2.50;;
19810;SDS011;10065;49.632;8.346;2023-07-31T05:56:17;6.07;;;2.10;;
19810;SDS011;10065;49.632;8.346;2023-07-31T05:58:50;8.43;;;2.67;;
19810;SDS011;10065;49.632;8.346;2023-07-31T06:01:24;5.53;;;2.30;;
19810;SDS011;10065;49.632;8.346;2023-07-31T06:04:05;10.20;;;2.33;;
19810;SDS011;10065;49.632;8.346;2023-07-31T06:09:26;6.27;;;2.80;;
19810;SDS011;10065;49.632;8.346;2023-07-31T06:11:56;6.67;;;2.30;;
19810;SDS011;10065;49.632;8.346;2023-07-31T06:14:27;9.60;;;2.70;;
19810;SDS011;10065;49.632;8.346;2023-07-31T06:16:59;7.00;;;2.40;;
19810;SDS011;10065;49.632;8.346;2023-07-31T06:19:27;10.67;;;3.00;;
19810;SDS011;10065;49.632;8.346;2023-07-31T06:21:55;11.40;;;3.00;;
19810;SDS011;10065;49.632;8.346;2023-07-31T06:24:23;10.83;;;3.13;;
19810;SDS011;10065;49.632;8.346;2023-07-31T06:26:51;8.27;;;2.80;;
19810;SDS011;10065;49.632;8.346;2023-07-31T06:29:20;9.53;;;2.70;;
19810;SDS011;10065;49.632;8.346;2023-07-31T06:31:48;10.37;;;2.80;;
19810;SDS011;10065;49.632;8.346;2023-07-31T06:36:55;9.57;;;2.90;;
19810;SDS011;10065;49.632;8.346;2023-07-31T06:39:30;6.07;;;2.43;;
19810;SDS011;10065;49.632;8.346;2023-07-31T06:41:58;6.57;;;2.53;;
19810;SDS011;10065;49.632;8.346;2023-07-31T06:44:28;7.27;;;2.50;;
19810;SDS011;10065;49.632;8.346;2023-07-31T06:46:56;6.60;;;2.50;;
19810;SDS011;10065;49.632;8.346;2023-07-31T06:49:24;8.60;;;2.60;;
19810;SDS011;10065;49.632;8.346;2023-07-31T06:51:52;7.07;;;2.47;;
19810;SDS011;10065;49.632;8.346;2023-07-31T06:54:19;8.93;;;2.20;;
19810;SDS011;10065;49.632;8.346;2023-07-31T06:56:47;7.83;;;2.87;;
19810;SDS011;10065;49.632;8.346;2023-07-31T06:59:15;6.80;;;2.43;;
19810;SDS011;10065;49.632;8.346;2023-07-31T07:01:44;7.67;;;2.60;;
19810;SDS011;10065;49.632;8.346;2023-07-31T07:04:13;5.60;;;2.33;;
19810;SDS011;10065;49.632;8.346;2023-07-31T07:06:41;5.47;;;2.40;;
19810;SDS011;10065;49.632;8.346;2023-07-31T07:09:09;7.47;;;2.57;;
19810;SDS011;10065;49.632;8.346;2023-07-31T07:11:37;13.47;;;2.83;;
19810;SDS011;10065;49.632;8.346;2023-07-31T07:14:05;9.17;;;2.67;;
19810;SDS011;10065;49.632;8.346;2023-07-31T07:16:33;8.43;;;3.50;;
19810;SDS011;10065;49.632;8.346;2023-07-31T07:19:03;5.83;;;2.67;;
19810;SDS011;10065;49.632;8.346;2023-07-31T07:21:30;7.23;;;2.23;;
19810;SDS011;10065;49.632;8.346;2023-07-31T07:23:59;7.63;;;2.63;;
19810;SDS011;10065;49.632;8.346;2023-07-31T07:26:27;7.80;;;2.80;;
19810;SDS011;10065;49.632;8.346;2023-07-31T07:28:54;11.43;;;2.83;;
19810;SDS011;10065;49.632;8.346;2023-07-31T07:31:26;9.13;;;2.50;;
19810;SDS011;10065;49.632;8.346;2023-07-31T07:33:53;6.80;;;2.87;;
19810;SDS011;10065;49.632;8.346;2023-07-31T07:36:23;6.70;;;2.47;;
19810;SDS011;10065;49.632;8.346;2023-07-31T07:38:51;6.90;;;3.00;;
19810;SDS011;10065;49.632;8.346;2023-07-31T07:41:19;9.80;;;3.30;;
19810;SDS011;10065;49.632;8.346;2023-07-31T07:43:47;6.83;;;2.77;;
19810;SDS011;10065;49.632;8.346;2023-07-31T07:46:14;7.73;;;2.90;;
19810;SDS011;10065;49.632;8.346;2023-07-31T07:48:42;11.10;;;2.90;;
19810;SDS011;10065;49.632;8.346;2023-07-31T07:51:10;6.53;;;2.53;;
19810;SDS011;10065;49.632;8.346;2023-07-31T07:53:39;8.52;;;2.67;;
19810;SDS011;10065;49.632;8.346;2023-07-31T07:56:07;8.00;;;2.60;;
19810;SDS011;10065;49.632;8.346;2023-07-31T07:58:35;8.40;;;2.70;;
19810;SDS011;10065;49.632;8.346;2023-07-31T08:01:03;11.00;;;3.13;;
19810;SDS011;10065;49.632;8.346;2023-07-31T08:03:31;7.80;;;2.90;;
19810;SDS011;10065;49.632;8.346;2023-07-31T08:05:59;5.77;;;2.47;;
19810;SDS011;10065;49.632;8.346;2023-07-31T08:08:28;6.23;;;2.60;;
19810;SDS011;10065;49.632;8.346;2023-07-31T08:10:57;7.50;;;2.50;;
19810;SDS011;10065;49.632;8.346;2023-07-31T08:13:25;7.37;;;2.60;;
19810;SDS011;10065;49.632;8.346;2023-07-31T08:15:53;6.27;;;2.37;;
19810;SDS011;10065;49.632;8.346;2023-07-31T08:18:21;6.00;;;2.75;;
19810;SDS011;10065;49.632;8.346;2023-07-31T08:20:49;7.03;;;2.30;;
19810;SDS011;10065;49.632;8.346;2023-07-31T08:23:17;5.63;;;2.17;;
19810;SDS011;10065;49.632;8.346;2023-07-31T08:25:45;6.33;;;2.43;;
19810;SDS011;10065;49.632;8.346;2023-07-31T08:28:20;9.50;;;2.22;;
19810;SDS011;10065;49.632;8.346;2023-07-31T08:30:48;7.73;;;2.43;;
19810;SDS011;10065;49.632;8.346;2023-07-31T08:33:17;5.47;;;2.38;;
19810;SDS011;10065;49.632;8.346;2023-07-31T08:35:48;5.07;;;2.00;;
19810;SDS011;10065;49.632;8.346;2023-07-31T08:38:16;6.97;;;2.28;;
19810;SDS011;10065;49.632;8.346;2023-07-31T08:40:44;6.75;;;2.45;;
19810;SDS011;10065;49.632;8.346;2023-07-31T08:43:15;12.10;;;3.08;;
19810;SDS011;10065;49.632;8.346;2023-07-31T08:48:27;8.82;;;2.75;;
19810;SDS011;10065;49.632;8.346;2023-07-31T08:50:56;6.43;;;2.40;;
19810;SDS011;10065;49.632;8.346;2023-07-31T08:53:24;8.85;;;3.10;;
19810;SDS011;10065;49.632;8.346;2023-07-31T08:55:53;6.82;;;2.72;;
19810;SDS011;10065;49.632;8.346;2023-07-31T08:58:21;8.93;;;2.92;;
19810;SDS011;10065;49.632;8.346;2023-07-31T09:00:51;8.25;;;3.08;;
19810;SDS011;10065;49.632;8.346;2023-07-31T09:03:23;7.68;;;3.15;;
19810;SDS011;10065;49.632;8.346;2023-07-31T09:05:53;6.45;;;2.72;;
19810;SDS011;10065;49.632;8.346;2023-07-31T09:08:26;6.32;;;2.50;;
19810;SDS011;10065;49.632;8.346;2023-07-31T09:11:01;5.50;;;2.42;;
19810;SDS011;10065;49.632;8.346;2023-07-31T09:13:31;6.65;;;2.95;;
19810;SDS011;10065;49.632;8.346;2023-07-31T09:16:00;7.35;;;2.47;;
19810;SDS011;10065;49.632;8.346;2023-07-31T09:18:30;6.05;;;2.53;;
19810;SDS011;10065;49.632;8.346;2023-07-31T09:21:00;7.55;;;2.70;;
19810;SDS011;10065;49.632;8.346;2023-07-31T09:23:41;9.43;;;3.00;;
19810;SDS011;10065;49.632;8.346;2023-07-31T09:26:36;5.63;;;2.67;;
19810;SDS011;10065;49.632;8.346;2023-07-31T09:29:18;8.02;;;3.15;;
19810;SDS011;10065;49.632;8.346;2023-07-31T09:32:34;10.52;;;2.80;;
19810;SDS011;10065;49.632;8.346;2023-07-31T09:34:49;8.15;;;2.90;;
19810;SDS011;10065;49.632;8.346;2023-07-31T09:37:20;7.60;;;3.20;;
19810;SDS011;10065;49.632;8.346;2023-07-31T09:39:48;8.30;;;3.10;;
19810;SDS011;10065;49.632;8.346;2023-07-31T09:42:27;6.60;;;2.70;;
19810;SDS011;10065;49.632;8.346;2023-07-31T09:45:06;6.88;;;2.78;;
19810;SDS011;10065;49.632;8.346;2023-07-31T09:47:46;7.35;;;2.80;;
19810;SDS011;10065;49.632;8.346;2023-07-31T09:50:17;8.90;;;3.22;;
19810;SDS011;10065;49.632;8.346;2023-07-31T09:52:55;8.30;;;3.05;;
19810;SDS011;10065;49.632;8.346;2023-07-31T09:55:32;8.05;;;3.10;;
19810;SDS011;10065;49.632;8.346;2023-07-31T09:58:03;6.95;;;2.80;;
19810;SDS011;10065;49.632;8.346;2023-07-31T10:00:51;7.03;;;3.28;;
19810;SDS011;10065;49.632;8.346;2023-07-31T10:03:44;9.13;;;3.35;;
19810;SDS011;10065;49.632;8.346;2023-07-31T10:06:41;7.05;;;2.97;;
19810;SDS011;10065;49.632;8.346;2023-07-31T10:10:15;10.48;;;3.58;;
19810;SDS011;10065;49.632;8.346;2023-07-31T10:12:53;11.23;;;3.38;;
19810;SDS011;10065;49.632;8.346;2023-07-31T10:15:37;7.18;;;3.47;;
19810;SDS011;10065;49.632;8.346;2023-07-31T10:18:14;6.47;;;2.92;;
19810;SDS011;10065;49.632;8.346;2023-07-31T10:24:52;7.97;;;2.85;;
19810;SDS011;10065;49.632;8.346;2023-07-31T10:27:22;5.93;;;3.17;;
19810;SDS011;10065;49.632;8.346;2023-07-31T10:29:54;8.70;;;2.85;;
19810;SDS011;10065;49.632;8.346;2023-07-31T10:32:24;8.65;;;3.53;;
19810;SDS011;10065;49.632;8.346;2023-07-31T10:34:54;12.95;;;3.70;;
19810;SDS011;10065;49.632;8.346;2023-07-31T10:37:25;7.32;;;3.60;;
19810;SDS011;10065;49.632;8.346;2023-07-31T10:40:03;8.55;;;3.22;;
19810;SDS011;10065;49.632;8.346;2023-07-31T10:42:44;8.00;;;3.45;;
19810;SDS011;10065;49.632;8.346;2023-07-31T10:45:31;9.13;;;3.20;;
19810;SDS011;10065;49.632;8.346;2023-07-31T10:48:12;8.40;;;3.40;;
19810;SDS011;10065;49.632;8.346;2023-07-31T10:50:46;10.48;;;3.67;;
19810;SDS011;10065;49.632;8.346;2023-07-31T10:53:24;7.53;;;3.28;;
19810;SDS011;10065;49.632;8.346;2023-07-31T10:56:44;6.43;;;3.00;;
19810;SDS011;10065;49.632;8.346;2023-07-31T10:59:16;7.85;;;3.22;;
19810;SDS011;10065;49.632;8.346;2023-07-31T11:02:08;4.38;;;2.55;;
19810;SDS011;10065;49.632;8.346;2023-07-31T11:08:22;8.35;;;2.80;;
19810;SDS011;10065;49.632;8.346;2023-07-31T11:11:44;10.38;;;2.70;;
19810;SDS011;10065;49.632;8.346;2023-07-31T11:14:31;6.45;;;3.00;;
19810;SDS011;10065;49.632;8.346;2023-07-31T11:17:08;7.32;;;2.70;;
19810;SDS011;10065;49.632;8.346;2023-07-31T11:19:36;7.22;;;2.97;;
19810;SDS011;10065;49.632;8.346;2023-07-31T11:22:08;5.88;;;2.42;;
19810;SDS011;10065;49.632;8.346;2023-07-31T11:24:42;8.10;;;2.63;;
19810;SDS011;10065;49.632;8.346;2023-07-31T11:27:44;8.35;;;2.67;;
19810;SDS011;10065;49.632;8.346;2023-07-31T11:30:36;8.68;;;3.25;;
19810;SDS011;10065;49.632;8.346;2023-07-31T11:33:22;8.30;;;3.22;;
19810;SDS011;10065;49.632;8.346;2023-07-31T11:36:04;9.57;;;3.00;;
19810;SDS011;10065;49.632;8.346;2023-07-31T11:38:49;8.05;;;3.15;;
19810;SDS011;10065;49.632;8.346;2023-07-31T11:41:22;5.93;;;3.05;;
19810;SDS011;10065;49.632;8.346;2023-07-31T11:43:59;8.63;;;2.72;;
19810;SDS011;10065;49.632;8.346;2023-07-31T11:46:46;7.38;;;2.80;;
19810;SDS011;10065;49.632;8.346;2023-07-31T11:49:18;9.55;;;2.90;;
19810;SDS011;10065;49.632;8.346;2023-07-31T11:51:46;7.97;;;3.05;;
19810;SDS011;10065;49.632;8.346;2023-07-31T11:54:20;6.65;;;2.67;;
19810;SDS011;10065;49.632;8.346;2023-07-31T11:56:50;8.98;;;3.03;;
19810;SDS011;10065;49.632;8.346;2023-07-31T11:59:39;6.30;;;2.83;;
19810;SDS011;10065;49.632;8.346;2023-07-31T12:02:08;7.15;;;2.72;;
19810;SDS011;10065;49.632;8.346;2023-07-31T12:05:04;6.13;;;2.72;;
19810;SDS011;10065;49.632;8.346;2023-07-31T12:07:43;7.72;;;2.72;;
19810;SDS011;10065;49.632;8.346;2023-07-31T12:13:31;5.22;;;2.63;;
19810;SDS011;10065;49.632;8.346;2023-07-31T12:16:16;5.95;;;2.80;;
19810;SDS011;10065;49.632;8.346;2023-07-31T12:18:54;8.07;;;2.97;;
19810;SDS011;10065;49.632;8.346;2023-07-31T12:21:38;7.22;;;3.17;;
19810;SDS011;10065;49.632;8.346;2023-07-31T12:24:11;6.55;;;2.70;;
19810;SDS011;10065;49.632;8.346;2023-07-31T12:30:08;7.40;;;3.15;;
19810;SDS011;10065;49.632;8.346;2023-07-31T12:37:51;6.60;;;2.90;;
19810;SDS011;10065;49.632;8.346;2023-07-31T12:41:21;7.78;;;3.25;;
19810;SDS011;10065;49.632;8.346;2023-07-31T12:44:02;6.57;;;3.00;;
19810;SDS011;10065;49.632;8.346;2023-07-31T12:50:13;8.85;;;3.28;;
19810;SDS011;10065;49.632;8.346;2023-07-31T12:57:09;8.93;;;3.03;;
19810;SDS011;10065;49.632;8.346;2023-07-31T13:01:45;7.25;;;3.00;;
19810;SDS011;10065;49.632;8.346;2023-07-31T13:04:21;6.97;;;2.78;;
19810;SDS011;10065;49.632;8.346;2023-07-31T13:07:36;4.88;;;3.17;;
19810;SDS011;10065;49.632;8.346;2023-07-31T13:10:06;6.50;;;2.70;;
19810;SDS011;10065;49.632;8.346;2023-07-31T13:12:52;6.30;;;2.92;;
19810;SDS011;10065;49.632;8.346;2023-07-31T13:16:00;6.88;;;3.10;;
19810;SDS011;10065;49.632;8.346;2023-07-31T13:18:34;10.38;;;3.00;;
19810;SDS011;10065;49.632;8.346;2023-07-31T13:21:08;8.32;;;3.33;;
19810;SDS011;10065;49.632;8.346;2023-07-31T13:23:56;8.68;;;2.80;;
19810;SDS011;10065;49.632;8.346;2023-07-31T13:26:28;8.07;;;2.83;;
19810;SDS011;10065;49.632;8.346;2023-07-31T13:29:02;5.82;;;2.75;;
19810;SDS011;10065;49.632;8.346;2023-07-31T13:31:35;8.13;;;3.15;;
19810;SDS011;10065;49.632;8.346;2023-07-31T13:34:26;7.80;;;2.88;;
19810;SDS011;10065;49.632;8.346;2023-07-31T13:37:41;5.55;;;2.20;;
19810;SDS011;10065;49.632;8.346;2023-07-31T13:44:21;9.60;;;2.90;;
19810;SDS011;10065;49.632;8.346;2023-07-31T13:47:08;8.63;;;3.33;;
19810;SDS011;10065;49.632;8.346;2023-07-31T13:49:45;6.15;;;3.03;;
19810;SDS011;10065;49.632;8.346;2023-07-31T13:52:28;6.10;;;2.85;;
19810;SDS011;10065;49.632;8.346;2023-07-31T13:58:20;8.23;;;2.90;;
19810;SDS011;10065;49.632;8.346;2023-07-31T14:04:34;5.18;;;2.90;;
19810;SDS011;10065;49.632;8.346;2023-07-31T14:11:08;7.65;;;2.67;;
19810;SDS011;10065;49.632;8.346;2023-07-31T14:14:08;6.57;;;2.95;;
19810;SDS011;10065;49.632;8.346;2023-07-31T14:20:11;11.32;;;2.88;;
19810;SDS011;10065;49.632;8.346;2023-07-31T14:22:52;5.88;;;2.58;;
19810;SDS011;10065;49.632;8.346;2023-07-31T14:25:41;8.43;;;3.05;;
19810;SDS011;10065;49.632;8.346;2023-07-31T14:28:16;6.05;;;3.10;;
19810;SDS011;10065;49.632;8.346;2023-07-31T14:34:15;7.15;;;3.50;;
19810;SDS011;10065;49.632;8.346;2023-07-31T14:37:15;6.15;;;3.03;;
19810;SDS011;10065;49.632;8.346;2023-07-31T14:43:33;4.47;;;2.50;;
19810;SDS011;10065;49.632;8.346;2023-07-31T14:46:07;5.60;;;2.70;;
19810;SDS011;10065;49.632;8.346;2023-07-31T14:48:48;6.50;;;2.90;;
19810;SDS011;10065;49.632;8.346;2023-07-31T14:51:19;5.72;;;2.63;;
19810;SDS011;10065;49.632;8.346;2023-07-31T14:53:57;7.35;;;2.70;;
19810;SDS011;10065;49.632;8.346;2023-07-31T14:56:56;6.38;;;2.65;;
19810;SDS011;10065;49.632;8.346;2023-07-31T14:59:52;7.22;;;2.20;;
19810;SDS011;10065;49.632;8.346;2023-07-31T15:02:33;8.48;;;2.47;;
19810;SDS011;10065;49.632;8.346;2023-07-31T15:05:19;5.13;;;2.35;;
19810;SDS011;10065;49.632;8.346;2023-07-31T15:08:04;7.68;;;2.70;;
19810;SDS011;10065;49.632;8.346;2023-07-31T15:10:40;6.72;;;2.80;;
19810;SDS011;10065;49.632;8.346;2023-07-31T15:13:13;6.63;;;2.72;;
19810;SDS011;10065;49.632;8.346;2023-07-31T15:16:24;5.50;;;2.45;;
19810;SDS011;10065;49.632;8.346;2023-07-31T15:18:45;5.35;;;2.28;;
19810;SDS011;10065;49.632;8.346;2023-07-31T15:21:23;5.63;;;2.50;;
19810;SDS011;10065;49.632;8.346;2023-07-31T15:24:22;5.68;;;2.17;;
19810;SDS011;10065;49.632;8.346;2023-07-31T15:29:54;5.65;;;2.38;;
19810;SDS011;10065;49.632;8.346;2023-07-31T15:32:28;4.70;;;2.33;;
19810;SDS011;10065;49.632;8.346;2023-07-31T15:35:05;7.93;;;3.00;;
19810;SDS011;10065;49.632;8.346;2023-07-31T15:37:34;5.68;;;2.45;;
19810;SDS011;10065;49.632;8.346;2023-07-31T15:46:54;4.90;;;2.60;;
19810;SDS011;10065;49.632;8.346;2023-07-31T15:52:28;7.60;;;2.53;;
19810;SDS011;10065;49.632;8.346;2023-07-31T15:55:11;6.63;;;2.80;;
19810;SDS011;10065;49.632;8.346;2023-07-31T15:57:39;6.38;;;2.90;;
19810;SDS011;10065;49.632;8.346;2023-07-31T16:00:16;8.13;;;3.05;;
19810;SDS011;10065;49.632;8.346;2023-07-31T16:03:34;9.23;;;3.08;;
19810;SDS011;10065;49.632;8.346;2023-07-31T16:06:23;5.20;;;2.63;;
19810;SDS011;10065;49.632;8.346;2023-07-31T16:09:00;6.47;;;3.03;;
19810;SDS011;10065;49.632;8.346;2023-07-31T16:11:57;7.97;;;3.00;;
19810;SDS011;10065;49.632;8.346;2023-07-31T16:14:31;7.07;;;3.00;;
19810;SDS011;10065;49.632;8.346;2023-07-31T16:17:55;5.68;;;3.10;;
19810;SDS011;10065;49.632;8.346;2023-07-31T16:20:54;5.20;;;2.88;;
19810;SDS011;10065;49.632;8.346;2023-07-31T16:23:34;7.70;;;3.45;;
19810;SDS011;10065;49.632;8.346;2023-07-31T16:27:05;9.38;;;3.28;;
19810;SDS011;10065;49.632;8.346;2023-07-31T16:29:54;5.82;;;2.83;;
19810;SDS011;10065;49.632;8.346;2023-07-31T16:36:02;5.50;;;3.08;;
19810;SDS011;10065;49.632;8.346;2023-07-31T16:38:52;7.78;;;3.08;;
19810;SDS011;10065;49.632;8.346;2023-07-31T16:41:25;7.90;;;3.45;;
19810;SDS011;10065;49.632;8.346;2023-07-31T16:46:44;9.50;;;3.42;;
19810;SDS011;10065;49.632;8.346;2023-07-31T16:49:12;10.20;;;3.50;;
19810;SDS011;10065;49.632;8.346;2023-07-31T16:51:44;6.75;;;3.35;;
19810;SDS011;10065;49.632;8.346;2023-07-31T16:54:17;9.10;;;3.03;;
19810;SDS011;10065;49.632;8.346;2023-07-31T16:56:45;7.38;;;3.67;;
19810;SDS011;10065;49.632;8.346;2023-07-31T16:59:25;6.82;;;3.25;;
19810;SDS011;10065;49.632;8.346;2023-07-31T17:01:57;7.53;;;3.40;;
19810;SDS011;10065;49.632;8.346;2023-07-31T17:04:26;11.27;;;4.43;;
19810;SDS011;10065;49.632;8.346;2023-07-31T17:06:59;9.48;;;3.80;;
19810;SDS011;10065;49.632;8.346;2023-07-31T17:09:39;11.27;;;3.88;;
19810;SDS011;10065;49.632;8.346;2023-07-31T17:12:13;8.50;;;3.83;;
19810;SDS011;10065;49.632;8.346;2023-07-31T17:14:41;7.45;;;3.50;;
19810;SDS011;10065;49.632;8.346;2023-07-31T17:17:10;10.05;;;3.88;;
19810;SDS011;10065;49.632;8.346;2023-07-31T17:19:53;9.20;;;3.67;;
19810;SDS011;10065;49.632;8.346;2023-07-31T17:22:36;8.47;;;4.00;;
19810;SDS011;10065;49.632;8.346;2023-07-31T17:25:14;8.57;;;4.00;;
19810;SDS011;10065;49.632;8.346;2023-07-31T17:27:44;12.05;;;4.47;;
19810;SDS011;10065;49.632;8.346;2023-07-31T17:30:16;10.13;;;4.47;;
19810;SDS011;10065;49.632;8.346;2023-07-31T17:32:47;9.38;;;3.90;;
19810;SDS011;10065;49.632;8.346;2023-07-31T17:35:16;7.63;;;4.25;;
19810;SDS011;10065;49.632;8.346;2023-07-31T17:37:46;8.18;;;3.97;;
19810;SDS011;10065;49.632;8.346;2023-07-31T17:40:27;9.00;;;3.50;;
19810;SDS011;10065;49.632;8.346;2023-07-31T17:42:55;6.50;;;3.35;;
19810;SDS011;10065;49.632;8.346;2023-07-31T17:45:24;6.88;;;4.20;;
19810;SDS011;10065;49.632;8.346;2023-07-31T17:47:55;7.97;;;3.88;;
19810;SDS011;10065;49.632;8.346;2023-07-31T17:50:24;8.35;;;3.63;;
19810;SDS011;10065;49.632;8.346;2023-07-31T17:52:53;6.10;;;3.13;;
19810;SDS011;10065;49.632;8.346;2023-07-31T17:55:21;7.93;;;2.85;;
19810;SDS011;10065;49.632;8.346;2023-07-31T17:57:49;5.67;;;3.00;;
19810;SDS011;10065;49.632;8.346;2023-07-31T18:00:19;5.15;;;2.92;;
19810;SDS011;10065;49.632;8.346;2023-07-31T18:02:49;6.60;;;3.17;;
19810;SDS011;10065;49.632;8.346;2023-07-31T18:05:23;5.93;;;2.95;;
19810;SDS011;10065;49.632;8.346;2023-07-31T18:07:56;5.40;;;2.80;;
19810;SDS011;10065;49.632;8.346;2023-07-31T18:10:25;5.75;;;2.83;;
19810;SDS011;10065;49.632;8.346;2023-07-31T18:12:55;4.43;;;2.40;;
19810;SDS011;10065;49.632;8.346;2023-07-31T18:15:24;5.43;;;2.40;;
19810;SDS011;10065;49.632;8.346;2023-07-31T18:17:52;5.68;;;2.80;;
19810;SDS011;10065;49.632;8.346;2023-07-31T18:20:21;5.87;;;2.60;;
19810;SDS011;10065;49.632;8.346;2023-07-31T18:22:51;5.27;;;2.70;;
19810;SDS011;10065;49.632;8.346;2023-07-31T18:28:18;7.03;;;2.50;;
19810;SDS011;10065;49.632;8.346;2023-07-31T18:30:56;6.20;;;2.80;;
19810;SDS011;10065;49.632;8.346;2023-07-31T18:33:29;6.77;;;3.33;;
19810;SDS011;10065;49.632;8.346;2023-07-31T18:36:05;4.50;;;2.73;;
19810;SDS011;10065;49.632;8.346;2023-07-31T18:38:34;6.80;;;2.80;;
19810;SDS011;10065;49.632;8.346;2023-07-31T18:41:50;10.23;;;2.77;;
19810;SDS011;10065;49.632;8.346;2023-07-31T18:44:17;7.17;;;3.07;;
19810;SDS011;10065;49.632;8.346;2023-07-31T18:46:46;6.93;;;2.77;;
19810;SDS011;10065;49.632;8.346;2023-07-31T18:49:14;5.90;;;2.80;;
19810;SDS011;10065;49.632;8.346;2023-07-31T18:51:43;5.27;;;3.10;;
19810;SDS011;10065;49.632;8.346;2023-07-31T18:54:12;7.03;;;2.73;;
19810;SDS011;10065;49.632;8.346;2023-07-31T18:56:41;6.17;;;3.93;;
19810;SDS011;10065;49.632;8.346;2023-07-31T18:59:10;6.43;;;3.50;;
19810;SDS011;10065;49.632;8.346;2023-07-31T19:01:38;6.00;;;3.10;;
19810;SDS011;10065;49.632;8.346;2023-07-31T19:04:10;7.40;;;2.90;;
19810;SDS011;10065;49.632;8.346;2023-07-31T19:06:40;8.07;;;3.03;;
19810;SDS011;10065;49.632;8.346;2023-07-31T19:09:26;9.47;;;2.80;;
19810;SDS011;10065;49.632;8.346;2023-07-31T19:11:56;9.57;;;3.23;;
19810;SDS011;10065;49.632;8.346;2023-07-31T19:14:29;7.07;;;2.67;;
19810;SDS011;10065;49.632;8.346;2023-07-31T19:16:57;6.73;;;2.67;;
19810;SDS011;10065;49.632;8.346;2023-07-31T19:19:27;8.00;;;2.40;;
19810;SDS011;10065;49.632;8.346;2023-07-31T19:21:56;4.93;;;2.63;;
19810;SDS011;10065;49.632;8.346;2023-07-31T19:24:24;5.53;;;2.50;;
19810;SDS011;10065;49.632;8.346;2023-07-31T19:27:00;7.37;;;2.67;;
19810;SDS011;10065;49.632;8.346;2023-07-31T19:29:34;6.80;;;2.80;;
19810;SDS011;10065;49.632;8.346;2023-07-31T19:32:02;8.37;;;3.30;;
19810;SDS011;10065;49.632;8.346;2023-07-31T19:35:04;6.97;;;3.10;;
19810;SDS011;10065;49.632;8.346;2023-07-31T19:37:35;6.60;;;2.60;;
19810;SDS011;10065;49.632;8.346;2023-07-31T19:40:04;7.47;;;2.53;;
19810;SDS011;10065;49.632;8.346;2023-07-31T19:42:33;5.50;;;2.20;;
19810;SDS011;10065;49.632;8.346;2023-07-31T19:45:03;5.23;;;2.87;;
19810;SDS011;10065;49.632;8.346;2023-07-31T19:47:35;7.30;;;2.13;;
19810;SDS011;10065;49.632;8.346;2023-07-31T19:50:09;5.03;;;2.70;;
19810;SDS011;10065;49.632;8.346;2023-07-31T19:52:37;6.53;;;2.57;;
19810;SDS011;10065;49.632;8.346;2023-07-31T19:55:15;6.67;;;2.20;;
19810;SDS011;10065;49.632;8.346;2023-07-31T19:57:46;6.03;;;2.60;;
19810;SDS011;10065;49.632;8.346;2023-07-31T20:00:15;8.10;;;3.00;;
19810;SDS011;10065;49.632;8.346;2023-07-31T20:02:43;5.97;;;2.43;;
19810;SDS011;10065;49.632;8.346;2023-07-31T20:05:11;5.73;;;2.87;;
19810;SDS011;10065;49.632;8.346;2023-07-31T20:07:39;6.60;;;2.50;;
19810;SDS011;10065;49.632;8.346;2023-07-31T20:10:07;7.53;;;2.70;;
19810;SDS011;10065;49.632;8.346;2023-07-31T20:12:36;5.50;;;2.43;;
19810;SDS011;10065;49.632;8.346;2023-07-31T20:15:04;6.30;;;3.00;;
19810;SDS011;10065;49.632;8.346;2023-07-31T20:17:34;5.47;;;2.83;;
19810;SDS011;10065;49.632;8.346;2023-07-31T20:20:02;7.80;;;3.00;;
